Time;durP1;ratioP1;P1;durP2;ratioP2;P2;SDS_P1;SDS_P2;PMS_P1;PMS_P2;Temp;Humidity;BMP_temperature;BMP_pressure;BME280_temperature;BME280_humidity;BME280_pressure;Samples;Min_cycle;Max_cycle;Signal;HPM_P1;HPM_P2
2022/07/14 00:02:17;;;;;;;1999.90;999.90;;;23.30;88.40;;;;;;5051691;28;20083;-74
2022/07/14 00:04:43;;;;;;;1999.90;999.90;;;23.20;88.50;;;;;;5051010;28;20022;-74
2022/07/14 00:07:09;;;;;;;1999.90;999.90;;;23.20;88.10;;;;;;5053189;28;20025;-74
2022/07/14 00:09:34;;;;;;;1999.90;999.90;;;23.20;87.80;;;;;;5052640;28;20480;-74
2022/07/14 00:12:00;;;;;;;1999.90;999.90;;;23.20;87.70;;;;;;5053012;28;20029;-74
2022/07/14 00:14:26;;;;;;;1999.90;999.90;;;23.20;87.50;;;;;;5052635;28;20484;-73
2022/07/14 00:16:51;;;;;;;1999.90;999.90;;;23.20;87.40;;;;;;5053092;28;20037;-75
2022/07/14 00:19:17;;;;;;;1999.90;999.90;;;23.10;87.30;;;;;;5053218;28;20025;-74
2022/07/14 00:21:43;;;;;;;1999.90;999.90;;;23.10;88.00;;;;;;5035109;28;20476;-73
2022/07/14 00:24:11;;;;;;;1999.90;999.90;;;23.10;87.50;;;;;;5033523;28;20026;-73
2022/07/14 00:26:39;;;;;;;1999.90;999.90;;;23.00;87.60;;;;;;5053076;28;20021;-75
2022/07/14 00:29:05;;;;;;;1999.90;999.90;;;23.00;87.90;;;;;;5053235;28;20398;-75
2022/07/14 00:31:31;;;;;;;1999.90;999.90;;;23.00;88.10;;;;;;5052664;28;20195;-75
2022/07/14 00:33:57;;;;;;;1999.90;999.90;;;23.00;88.20;;;;;;5051127;28;20507;-74
2022/07/14 00:36:22;;;;;;;1999.90;999.90;;;22.90;88.10;;;;;;5053295;28;20104;-75
2022/07/14 00:38:48;;;;;;;1999.90;999.90;;;22.90;88.50;;;;;;5044953;28;20029;-73
2022/07/14 00:41:14;;;;;;;1999.90;999.90;;;22.90;89.00;;;;;;5052698;28;20031;-74
2022/07/14 00:43:40;;;;;;;1999.90;999.90;;;22.80;88.90;;;;;;5052900;28;20025;-74
2022/07/14 00:46:05;;;;;;;1999.90;999.90;;;22.70;89.00;;;;;;5052912;28;20021;-74
2022/07/14 00:48:31;;;;;;;1999.90;999.90;;;22.70;89.30;;;;;;5052961;28;20021;-74
2022/07/14 00:50:57;;;;;;;1999.90;999.90;;;22.60;89.30;;;;;;5055178;28;20059;-74
2022/07/14 00:53:22;;;;;;;1999.90;999.90;;;22.60;89.50;;;;;;5056297;28;20029;-75
2022/07/14 00:55:48;;;;;;;1999.90;999.90;;;22.60;89.10;;;;;;5052466;28;20025;-75
2022/07/14 00:58:14;;;;;;;1999.90;999.90;;;22.60;89.50;;;;;;5034785;28;20055;-75
2022/07/14 01:00:40;;;;;;;1999.90;999.90;;;22.50;89.80;;;;;;5052647;28;20075;-74
2022/07/14 01:03:05;;;;;;;1999.90;999.90;;;22.60;89.50;;;;;;5051053;28;20095;-74
2022/07/14 01:05:31;;;;;;;1999.90;999.90;;;22.60;89.30;;;;;;5051027;28;20443;-74
2022/07/14 01:07:57;;;;;;;1999.90;999.90;;;22.60;89.00;;;;;;5052793;28;20072;-75
2022/07/14 01:10:23;;;;;;;1999.90;999.90;;;22.60;89.50;;;;;;5052298;28;20049;-74
2022/07/14 01:12:49;;;;;;;1999.90;999.90;;;22.60;89.50;;;;;;5052450;28;20029;-74
2022/07/14 01:15:19;;;;;;;1999.90;999.90;;;22.60;89.50;;;;;;5051411;28;20025;-74
2022/07/14 01:17:47;;;;;;;1999.90;999.90;;;22.60;89.60;;;;;;5052244;28;20100;-74
2022/07/14 01:20:17;;;;;;;1999.90;999.90;;;22.60;89.70;;;;;;5052483;28;20399;-74
2022/07/14 01:22:44;;;;;;;1999.90;999.90;;;22.60;89.90;;;;;;5052164;28;20890;-74
2022/07/14 01:25:10;;;;;;;1999.90;999.90;;;22.60;90.10;;;;;;5052246;28;20017;-74
2022/07/14 01:27:36;;;;;;;1999.90;999.90;;;22.60;90.20;;;;;;5052400;28;20147;-74
2022/07/14 01:30:04;;;;;;;1999.90;999.90;;;22.50;90.10;;;;;;5052219;28;20132;-74
2022/07/14 01:32:29;;;;;;;1999.90;999.90;;;22.50;90.10;;;;;;5050377;28;20331;-75
2022/07/14 01:34:55;;;;;;;1999.90;999.90;;;22.60;90.20;;;;;;5042465;28;20079;-74
2022/07/14 01:37:21;;;;;;;1999.90;999.90;;;22.60;90.10;;;;;;5049585;28;20075;-75
2022/07/14 01:39:47;;;;;;;1999.90;999.90;;;22.50;90.20;;;;;;5051933;28;20029;-74
2022/07/14 01:42:13;;;;;;;1999.90;999.90;;;22.40;90.40;;;;;;5043868;28;20543;-74
2022/07/14 01:44:39;;;;;;;1999.90;999.90;;;22.40;90.40;;;;;;5052371;28;20028;-74
2022/07/14 01:47:04;;;;;;;1999.90;999.90;;;22.30;90.60;;;;;;5052172;28;20025;-74
2022/07/14 01:49:30;;;;;;;1999.90;999.90;;;22.30;90.60;;;;;;5048510;28;20040;-74
2022/07/14 01:51:56;;;;;;;1999.90;999.90;;;22.40;90.50;;;;;;5049435;28;20396;-74
2022/07/14 01:54:24;;;;;;;1999.90;999.90;;;22.40;90.60;;;;;;5051941;28;20025;-74
2022/07/14 01:56:50;;;;;;;1999.90;999.90;;;22.40;90.60;;;;;;5052211;28;20025;-74
2022/07/14 01:59:16;;;;;;;1999.90;999.90;;;22.40;90.50;;;;;;5052534;28;20422;-75
2022/07/14 02:01:42;;;;;;;1999.90;999.90;;;22.40;90.60;;;;;;5059281;28;20111;-74
2022/07/14 02:04:09;;;;;;;1999.90;999.90;;;22.30;90.70;;;;;;5050819;28;20024;-74
2022/07/14 02:06:46;;;;;;;1999.90;999.90;;;22.30;90.80;;;;;;5052511;28;20021;-74
2022/07/14 02:09:12;;;;;;;1999.90;999.90;;;22.30;90.70;;;;;;5055291;28;20029;-74
2022/07/14 02:14:23;;;;;;;1999.90;999.90;;;22.30;90.80;;;;;;5055891;28;20067;-74
2022/07/14 02:16:49;;;;;;;1999.90;999.90;;;22.30;90.90;;;;;;5054814;28;20033;-73
2022/07/14 02:19:14;;;;;;;1999.90;999.90;;;22.20;91.00;;;;;;5055557;28;20032;-74
2022/07/14 02:21:41;;;;;;;1999.90;999.90;;;22.20;91.10;;;;;;5055508;28;20392;-74
2022/07/14 02:24:08;;;;;;;1999.90;999.90;;;22.20;91.10;;;;;;5053293;28;20392;-73
2022/07/14 02:26:34;;;;;;;1999.90;999.90;;;22.10;91.30;;;;;;5055497;28;20476;-74
2022/07/14 02:29:00;;;;;;;1999.90;999.90;;;22.10;91.50;;;;;;5055161;28;20029;-74
2022/07/14 02:31:25;;;;;;;1999.90;999.90;;;22.10;91.50;;;;;;5055013;28;20060;-74
2022/07/14 02:33:51;;;;;;;1999.90;999.90;;;22.10;91.60;;;;;;5052363;28;20112;-74
2022/07/14 02:36:17;;;;;;;1999.90;999.90;;;22.00;91.80;;;;;;5042918;28;20032;-74
2022/07/14 02:38:43;;;;;;;1999.90;999.90;;;22.00;91.80;;;;;;5054963;28;20033;-74
2022/07/14 02:41:09;;;;;;;1999.90;999.90;;;21.90;92.00;;;;;;5051716;28;20025;-74
2022/07/14 02:43:35;;;;;;;1999.90;999.90;;;21.90;92.10;;;;;;5049675;28;20025;-73
2022/07/14 02:46:01;;;;;;;1999.90;999.90;;;21.90;92.20;;;;;;5054952;28;20068;-74
2022/07/14 02:48:27;;;;;;;1999.90;999.90;;;21.80;92.40;;;;;;5055048;28;20021;-74
2022/07/14 02:51:07;;;;;;;1999.90;999.90;;;21.80;92.60;;;;;;5056686;28;20024;-75
2022/07/14 02:53:34;;;;;;;1999.90;999.90;;;21.80;92.70;;;;;;5057618;28;20024;-74
2022/07/14 02:56:04;;;;;;;1999.90;999.90;;;21.80;92.90;;;;;;5055203;28;20037;-74
2022/07/14 02:58:30;;;;;;;1999.90;999.90;;;21.70;93.10;;;;;;5054859;28;20029;-74
2022/07/14 03:00:56;;;;;;;1999.90;999.90;;;21.70;93.40;;;;;;5054714;28;20032;-74
2022/07/14 03:03:22;;;;;;;1999.90;999.90;;;21.70;93.60;;;;;;5053091;28;20503;-73
2022/07/14 03:05:48;;;;;;;1999.90;999.90;;;21.60;93.90;;;;;;5054588;28;20057;-74
2022/07/14 03:08:14;;;;;;;1999.90;999.90;;;21.60;94.00;;;;;;5054633;28;20025;-74
2022/07/14 03:10:40;;;;;;;1999.90;999.90;;;21.60;94.40;;;;;;5047185;28;20598;-73
2022/07/14 03:13:06;;;;;;;1999.90;999.90;;;21.50;94.60;;;;;;5052600;28;20025;-73
2022/07/14 03:15:32;;;;;;;1999.90;999.90;;;21.50;94.90;;;;;;5053834;28;20120;-74
2022/07/14 03:17:58;;;;;;;1999.90;999.90;;;21.40;95.10;;;;;;5053262;28;20025;-74
2022/07/14 03:20:24;;;;;;;1999.90;999.90;;;21.30;95.30;;;;;;5054340;28;20017;-74
2022/07/14 03:22:50;;;;;;;1999.90;999.90;;;21.30;95.50;;;;;;5054051;28;20036;-74
2022/07/14 03:25:15;;;;;;;1999.90;999.90;;;21.30;95.60;;;;;;5054041;28;20059;-74
2022/07/14 03:27:41;;;;;;;1999.90;999.90;;;21.20;95.60;;;;;;5054217;28;20025;-74
2022/07/14 03:30:08;;;;;;;1999.90;999.90;;;21.20;95.70;;;;;;5053713;28;20056;-74
2022/07/14 03:32:35;;;;;;;1999.90;999.90;;;21.20;95.80;;;;;;5052994;28;20040;-74
2022/07/14 03:35:05;;;;;;;1999.90;999.90;;;21.10;96.00;;;;;;5053987;28;20090;-73
2022/07/14 03:37:31;;;;;;;1999.90;999.90;;;21.10;96.30;;;;;;5054089;28;20032;-73
2022/07/14 03:39:57;;;;;;;1999.90;999.90;;;21.10;96.40;;;;;;5046366;28;20028;-74
2022/07/14 03:42:23;;;;;;;1999.90;999.90;;;21.10;96.50;;;;;;5053890;28;20090;-74
2022/07/14 03:44:49;;;;;;;1999.90;999.90;;;21.00;96.60;;;;;;5054070;28;20373;-74
2022/07/14 03:47:15;;;;;;;1999.90;999.90;;;21.00;96.80;;;;;;5053876;28;20021;-74
2022/07/14 03:49:43;;;;;;;1999.90;999.90;;;21.00;96.90;;;;;;5053379;28;20048;-73
2022/07/14 03:52:09;;;;;;;1999.90;999.90;;;21.00;96.90;;;;;;5067143;28;20100;-73
2022/07/14 03:54:36;;;;;;;1999.90;999.90;;;20.90;96.90;;;;;;5053524;28;20039;-74
2022/07/14 03:57:01;;;;;;;1999.90;999.90;;;21.00;97.00;;;;;;5053683;28;20123;-74
2022/07/14 03:59:27;;;;;;;1999.90;999.90;;;20.90;97.00;;;;;;5053729;28;20528;-74
2022/07/14 04:01:53;;;;;;;1999.90;999.90;;;20.80;97.10;;;;;;5053087;28;20395;-74
2022/07/14 04:04:19;;;;;;;1999.90;999.90;;;20.80;97.20;;;;;;5051145;28;20484;-74
2022/07/14 04:06:44;;;;;;;1999.90;999.90;;;20.70;97.30;;;;;;5052316;28;20048;-74
2022/07/14 04:09:10;;;;;;;1999.90;999.90;;;20.60;97.40;;;;;;5053225;28;20036;-74
2022/07/14 04:11:35;;;;;;;1999.90;999.90;;;20.60;97.40;;;;;;5053366;28;20021;-74
2022/07/14 04:14:01;;;;;;;1999.90;999.90;;;20.60;97.40;;;;;;5052940;28;20099;-74
2022/07/14 04:16:27;;;;;;;1999.90;999.90;;;20.50;97.40;;;;;;5034538;28;20078;-74
2022/07/14 04:18:53;;;;;;;1999.90;999.90;;;20.50;97.60;;;;;;5053179;28;20029;-74
2022/07/14 04:21:18;;;;;;;1999.90;999.90;;;20.50;97.80;;;;;;5053059;28;20029;-74
2022/07/14 04:23:44;;;;;;;1999.90;999.90;;;20.50;97.70;;;;;;5052950;28;20021;-74
2022/07/14 04:26:10;;;;;;;1999.90;999.90;;;20.40;97.80;;;;;;5053216;28;20021;-74
2022/07/14 04:28:36;;;;;;;1999.90;999.90;;;20.40;98.00;;;;;;5053018;28;20075;-74
2022/07/14 04:31:02;;;;;;;1999.90;999.90;;;20.30;98.10;;;;;;5053343;28;20095;-74
2022/07/14 04:33:28;;;;;;;1999.90;999.90;;;20.30;98.10;;;;;;5051093;28;20037;-74
2022/07/14 04:35:54;;;;;;;1999.90;999.90;;;20.30;98.40;;;;;;5053038;28;20064;-74
2022/07/14 04:38:20;;;;;;;1999.90;999.90;;;20.40;98.40;;;;;;5046803;28;20037;-74
2022/07/14 04:40:48;;;;;;;1999.90;999.90;;;20.40;98.40;;;;;;5051459;28;20021;-74
2022/07/14 04:43:13;;;;;;;1999.90;999.90;;;20.40;98.50;;;;;;5053084;28;20021;-73
2022/07/14 04:45:39;;;;;;;1999.90;999.90;;;20.40;98.60;;;;;;5052915;28;20083;-73
2022/07/14 04:48:05;;;;;;;1999.90;999.90;;;20.30;98.70;;;;;;5052933;28;20025;-74
2022/07/14 04:53:15;;;;;;;1999.90;999.90;;;20.30;98.70;;;;;;5058282;28;20036;-74
2022/07/14 04:55:40;;;;;;;1999.90;999.90;;;20.30;98.80;;;;;;5034888;28;20021;-73
2022/07/14 04:58:06;;;;;;;1999.90;999.90;;;20.40;98.70;;;;;;5052877;28;20078;-74
2022/07/14 05:00:31;;;;;;;1999.90;999.90;;;20.40;98.70;;;;;;5052536;28;20044;-74
2022/07/14 05:02:57;;;;;;;1999.90;999.90;;;20.40;98.70;;;;;;5050826;28;20456;-74
2022/07/14 05:05:23;;;;;;;1999.90;999.90;;;20.30;98.80;;;;;;5052604;28;20487;-74
2022/07/14 05:07:48;;;;;;;1999.90;999.90;;;20.30;99.00;;;;;;5052865;28;20392;-74
2022/07/14 05:10:14;;;;;;;1999.90;999.90;;;20.30;99.00;;;;;;5048585;28;20021;-74
2022/07/14 05:12:40;;;;;;;1999.90;999.90;;;20.40;99.10;;;;;;5046574;28;20029;-74
2022/07/14 05:15:06;;;;;;;1999.90;999.90;;;20.40;99.00;;;;;;5052755;28;20510;-74
2022/07/14 05:17:32;;;;;;;1999.90;999.90;;;20.50;98.90;;;;;;5051548;28;20029;-74
2022/07/14 05:19:57;;;;;;;1999.90;999.90;;;20.60;98.90;;;;;;5052530;28;20381;-73
2022/07/14 05:22:24;;;;;;;1999.90;999.90;;;20.60;98.80;;;;;;5052190;28;20029;-73
2022/07/14 05:24:50;;;;;;;1999.90;999.90;;;20.60;98.70;;;;;;5052279;28;20028;-73
2022/07/14 05:27:16;;;;;;;1999.90;999.90;;;20.60;98.60;;;;;;5052465;28;20469;-74
2022/07/14 05:29:42;;;;;;;1999.90;999.90;;;20.70;98.70;;;;;;5052429;28;20087;-74
2022/07/14 05:32:07;;;;;;;1999.90;999.90;;;20.70;98.70;;;;;;5051055;28;20037;-72
2022/07/14 05:34:39;;;;;;;1999.90;999.90;;;20.80;98.80;;;;;;5044658;28;20025;-74
2022/07/14 05:37:05;;;;;;;1999.90;999.90;;;20.80;98.80;;;;;;5049078;28;20029;-73
2022/07/14 05:39:30;;;;;;;1999.90;999.90;;;20.90;98.80;;;;;;5052192;28;20021;-74
2022/07/14 05:41:56;;;;;;;1999.90;999.90;;;20.90;98.70;;;;;;5046644;28;20026;-74
2022/07/14 05:44:22;;;;;;;1999.90;999.90;;;21.00;98.60;;;;;;5055007;28;20051;-74
2022/07/14 05:46:47;;;;;;;1999.90;999.90;;;21.00;98.60;;;;;;5056077;28;20036;-73
2022/07/14 05:49:13;;;;;;;1999.90;999.90;;;21.10;98.50;;;;;;5054635;28;20032;-74
2022/07/14 05:51:38;;;;;;;1999.90;999.90;;;21.10;98.50;;;;;;5064305;28;20403;-74
2022/07/14 05:54:04;;;;;;;1999.90;999.90;;;21.20;98.50;;;;;;5055968;28;20021;-74
2022/07/14 05:56:30;;;;;;;1999.90;999.90;;;21.30;98.40;;;;;;5055964;28;20033;-74
2022/07/14 05:58:55;;;;;;;1999.90;999.90;;;21.40;98.40;;;;;;5056186;28;20462;-74
2022/07/14 06:01:21;;;;;;;1999.90;999.90;;;21.40;98.20;;;;;;5055311;28;20025;-74
2022/07/14 06:03:56;;;;;;;1999.90;999.90;;;21.50;98.10;;;;;;5054312;28;20017;-74
2022/07/14 06:06:22;;;;;;;1999.90;999.90;;;21.60;98.00;;;;;;5055618;28;20024;-74
2022/07/14 06:08:48;;;;;;;1999.90;999.90;;;21.70;97.90;;;;;;5055597;28;20017;-74
2022/07/14 06:11:14;;;;;;;1999.90;999.90;;;21.80;97.70;;;;;;5045662;28;20104;-74
2022/07/14 06:13:41;;;;;;;1999.90;999.90;;;21.90;97.70;;;;;;5055784;28;20107;-74
2022/07/14 06:16:08;;;;;;;1999.90;999.90;;;22.00;97.60;;;;;;5055361;28;20475;-74
2022/07/14 06:18:34;;;;;;;1999.90;999.90;;;22.00;97.50;;;;;;5054638;28;20021;-74
2022/07/14 06:20:59;;;;;;;1999.90;999.90;;;22.10;97.40;;;;;;5055531;28;20055;-74
2022/07/14 06:23:25;;;;;;;1999.90;999.90;;;22.20;97.30;;;;;;5055099;28;20032;-74
2022/07/14 06:25:51;;;;;;;1999.90;999.90;;;22.20;97.30;;;;;;5055532;28;20083;-73
2022/07/14 06:28:17;;;;;;;1999.90;999.90;;;22.30;97.10;;;;;;5055441;28;20044;-73
2022/07/14 06:30:43;;;;;;;1999.90;999.90;;;22.30;97.20;;;;;;5055772;28;20067;-73
2022/07/14 06:33:09;;;;;;;1999.90;999.90;;;22.40;97.20;;;;;;5053605;28;20036;-74
2022/07/14 06:35:42;;;;;;;1999.90;999.90;;;22.50;97.20;;;;;;5042141;28;20400;-74
2022/07/14 06:38:08;;;;;;;1999.90;999.90;;;22.60;97.00;;;;;;5055336;28;20040;-74
2022/07/14 06:40:34;;;;;;;1999.90;999.90;;;22.70;96.80;;;;;;5054874;28;20053;-74
2022/07/14 06:43:00;;;;;;;1999.90;999.90;;;22.80;96.70;;;;;;5055033;28;20100;-74
2022/07/14 06:45:25;;;;;;;1999.90;999.90;;;22.90;96.60;;;;;;5055126;28;20036;-74
2022/07/14 06:47:51;;;;;;;1999.90;999.90;;;23.00;96.60;;;;;;5055036;28;20025;-74
2022/07/14 06:50:16;;;;;;;1999.90;999.90;;;23.10;96.50;;;;;;5051941;28;20017;-74
2022/07/14 06:52:42;;;;;;;1999.90;999.90;;;23.20;96.20;;;;;;5063661;28;20089;-74
2022/07/14 06:55:09;;;;;;;1999.90;999.90;;;23.20;96.00;;;;;;5055136;28;20514;-74
2022/07/14 06:57:34;;;;;;;1999.90;999.90;;;23.30;96.10;;;;;;5054979;28;20029;-74
2022/07/14 07:00:01;;;;;;;1999.90;999.90;;;23.40;96.20;;;;;;5054351;28;20415;-74
2022/07/14 07:02:26;;;;;;;1999.90;999.90;;;23.50;96.10;;;;;;5053127;28;20025;-74
2022/07/14 07:07:36;;;;;;;1999.90;999.90;;;23.60;95.80;;;;;;5055037;28;20055;-74
2022/07/14 07:10:04;;;;;;;1999.90;999.90;;;23.70;95.70;;;;;;5052144;28;20017;-74
2022/07/14 07:12:30;;;;;;;1999.90;999.90;;;23.80;95.60;;;;;;5047287;28;20029;-74
2022/07/14 07:14:55;;;;;;;1999.90;999.90;;;23.90;95.50;;;;;;5053817;28;20055;-74
2022/07/14 07:17:21;;;;;;;1999.90;999.90;;;24.00;95.20;;;;;;5054051;28;20450;-74
2022/07/14 07:19:47;;;;;;;1999.90;999.90;;;24.10;95.10;;;;;;5054723;28;20476;-74
2022/07/14 07:22:13;;;;;;;1999.90;999.90;;;24.20;94.90;;;;;;5054449;28;20120;-74
2022/07/14 07:24:39;;;;;;;1999.90;999.90;;;24.30;94.70;;;;;;5054227;28;20055;-74
2022/07/14 07:27:06;;;;;;;1999.90;999.90;;;24.40;94.70;;;;;;5054310;28;20068;-74
2022/07/14 07:29:31;;;;;;;1999.90;999.90;;;24.60;94.20;;;;;;5054152;28;20075;-74
2022/07/14 07:31:57;;;;;;;1999.90;999.90;;;24.70;94.20;;;;;;5053837;28;20040;-74
2022/07/14 07:34:23;;;;;;;1999.90;999.90;;;24.80;94.10;;;;;;5047307;28;20048;-74
2022/07/14 07:36:49;;;;;;;1999.90;999.90;;;25.00;93.70;;;;;;5046764;28;20028;-74
2022/07/14 07:39:14;;;;;;;1999.90;999.90;;;25.30;93.30;;;;;;5053719;28;20032;-74
2022/07/14 07:41:40;;;;;;;1999.90;999.90;;;26.10;92.70;;;;;;5046470;28;20108;-75
2022/07/14 07:44:06;;;;;;;1999.90;999.90;;;28.50;90.30;;;;;;5053345;28;20032;-75
2022/07/14 07:46:32;;;;;;;1999.90;999.90;;;30.80;84.30;;;;;;5053963;28;20021;-74
2022/07/14 07:48:58;;;;;;;1999.90;999.90;;;32.60;80.80;;;;;;5053771;28;20021;-73
2022/07/14 07:51:24;;;;;;;1999.90;999.90;;;32.90;78.00;;;;;;5059980;28;20460;-73
2022/07/14 07:53:49;;;;;;;1999.90;999.90;;;33.20;77.30;;;;;;5054037;28;20033;-73
2022/07/14 07:56:15;;;;;;;1999.90;999.90;;;33.60;77.00;;;;;;5053776;28;20439;-73
2022/07/14 07:58:41;;;;;;;1999.90;999.90;;;34.30;75.80;;;;;;5053952;28;20033;-73
2022/07/14 08:01:06;;;;;;;1999.90;999.90;;;35.50;74.50;;;;;;5053461;28;20025;-73
2022/07/14 08:03:32;;;;;;;1999.90;999.90;;;36.00;73.60;;;;;;5051443;28;20025;-73
2022/07/14 08:05:58;;;;;;;1999.90;999.90;;;36.30;72.50;;;;;;5051504;28;20049;-73
2022/07/14 08:08:23;;;;;;;1999.90;999.90;;;36.30;72.40;;;;;;5053113;28;20025;-73
2022/07/14 08:10:49;;;;;;;1999.90;999.90;;;37.30;71.60;;;;;;5053439;28;20021;-73
2022/07/14 08:13:15;;;;;;;1999.90;999.90;;;38.40;70.20;;;;;;5053316;28;20104;-73
2022/07/14 08:15:41;;;;;;;1999.90;999.90;;;38.40;69.60;;;;;;5053397;28;20021;-73
2022/07/14 08:18:07;;;;;;;1999.90;999.90;;;38.10;70.30;;;;;;5052894;28;20021;-73
2022/07/14 08:20:34;;;;;;;1999.90;999.90;;;38.80;69.50;;;;;;5053094;28;20371;-73
2022/07/14 08:23:00;;;;;;;1999.90;999.90;;;39.50;68.20;;;;;;5053002;28;20498;-73
2022/07/14 08:25:26;;;;;;;1999.90;999.90;;;40.10;67.60;;;;;;5052844;28;20025;-73
2022/07/14 08:27:52;;;;;;;1999.90;999.90;;;39.90;67.20;;;;;;5053052;28;20036;-73
2022/07/14 08:30:18;;;;;;;1999.90;999.90;;;39.80;67.40;;;;;;5053105;28;20210;-73
2022/07/14 08:32:50;;;;;;;1999.90;999.90;;;40.10;66.80;;;;;;5051049;28;20454;-73
2022/07/14 08:35:18;;;;;;;1999.90;999.90;;;40.30;67.20;;;;;;5053236;28;20071;-73
2022/07/14 08:37:44;;;;;;;1999.90;999.90;;;40.80;66.70;;;;;;5052194;28;20109;-74
2022/07/14 08:40:13;;;;;;;1999.90;999.90;;;40.50;66.10;;;;;;5045828;28;20052;-73
2022/07/14 08:42:42;;;;;;;1999.90;999.90;;;40.70;66.90;;;;;;5052878;28;20024;-73
2022/07/14 08:45:10;;;;;;;1999.90;999.90;;;41.50;65.90;;;;;;5052926;28;20021;-73
2022/07/14 08:47:40;;;;;;;1999.90;999.90;;;41.90;65.60;;;;;;5052859;28;20032;-73
2022/07/14 08:50:08;;;;;;;1999.90;999.90;;;41.20;65.80;;;;;;5048453;28;20445;-73
2022/07/14 08:52:36;;;;;;;1999.90;999.90;;;41.70;66.10;;;;;;5064198;28;20373;-74
2022/07/14 08:55:03;;;;;;;1999.90;999.90;;;41.80;65.40;;;;;;5052444;28;20440;-73
2022/07/14 08:57:30;;;;;;;1999.90;999.90;;;42.50;65.00;;;;;;5052831;28;20039;-74
2022/07/14 08:59:55;;;;;;;1999.90;999.90;;;42.50;63.70;;;;;;5053097;28;20492;-74
2022/07/14 09:02:22;;;;;;;1999.90;999.90;;;41.70;64.10;;;;;;5050820;28;20064;-73
2022/07/14 09:04:48;;;;;;;1999.90;999.90;;;41.80;64.20;;;;;;5052623;28;20021;-74
2022/07/14 09:07:34;;;;;;;1999.90;999.90;;;42.80;63.80;;;;;;5052954;28;20095;-73
2022/07/14 09:10:03;;;;;;;1999.90;999.90;;;43.10;62.80;;;;;;5050676;28;20040;-73
2022/07/14 09:12:30;;;;;;;1999.90;999.90;;;42.80;62.50;;;;;;5045690;28;20033;-74
2022/07/14 09:17:52;;;;;;;1999.90;999.90;;;43.10;63.60;;;;;;5056497;28;20127;-74
2022/07/14 09:20:18;;;;;;;1999.90;999.90;;;43.40;63.00;;;;;;5056017;28;20361;-74
2022/07/14 09:22:44;;;;;;;1999.90;999.90;;;43.90;63.00;;;;;;5056511;28;20036;-73
2022/07/14 09:25:12;;;;;;;1999.90;999.90;;;43.70;61.90;;;;;;5056606;28;20054;-73
2022/07/14 09:27:39;;;;;;;1999.90;999.90;;;43.30;62.70;;;;;;5056545;28;20024;-73
2022/07/14 09:30:06;;;;;;;1999.90;999.90;;;43.00;61.80;;;;;;5056562;28;20041;-74
2022/07/14 09:32:46;;;;;;;1999.90;999.90;;;42.80;62.80;;;;;;5053716;28;20458;-73
2022/07/14 09:35:13;;;;;;;1999.90;999.90;;;43.40;62.20;;;;;;5044625;28;20029;-74
2022/07/14 09:37:40;;;;;;;1999.90;999.90;;;43.50;62.20;;;;;;5056190;28;20031;-73
2022/07/14 09:40:10;;;;;;;1999.90;999.90;;;43.60;62.10;;;;;;5056290;28;20017;-74
2022/07/14 09:42:48;;;;;;;1999.90;999.90;;;44.70;62.20;;;;;;5056855;28;20021;-74
2022/07/14 09:45:14;;;;;;;1999.90;999.90;;;43.90;62.10;;;;;;5056387;28;20032;-74
2022/07/14 09:48:02;;;;;;;1999.90;999.90;;;43.30;63.40;;;;;;5056279;28;20029;-74
2022/07/14 09:50:44;;;;;;;1999.90;999.90;;;43.10;61.90;;;;;;5054896;28;20016;-74
2022/07/14 09:53:14;;;;;;;1999.90;999.90;;;42.50;62.30;;;;;;5061927;28;20029;-73
2022/07/14 09:56:01;;;;;;;1999.90;999.90;;;43.00;62.40;;;;;;5056213;28;20091;-74
2022/07/14 09:58:28;;;;;;;1999.90;999.90;;;43.30;62.40;;;;;;5031520;28;20044;-73
2022/07/14 10:00:59;;;;;;;1999.90;999.90;;;43.30;61.60;;;;;;5055759;28;20032;-73
2022/07/14 10:03:27;;;;;;;1999.90;999.90;;;43.60;61.70;;;;;;5054271;28;20028;-74
2022/07/14 10:05:54;;;;;;;1999.90;999.90;;;44.10;61.90;;;;;;5053794;28;20388;-74
2022/07/14 10:08:23;;;;;;;1999.90;999.90;;;44.30;62.70;;;;;;5056087;28;20476;-73
2022/07/14 10:10:51;;;;;;;1999.90;999.90;;;43.90;61.40;;;;;;5054930;28;20544;-74
2022/07/14 10:13:18;;;;;;;1999.90;999.90;;;43.00;62.20;;;;;;5055829;28;20079;-74
2022/07/14 10:15:44;;;;;;;1999.90;999.90;;;43.80;62.90;;;;;;5055200;28;20031;-74
2022/07/14 10:18:11;;;;;;;1999.90;999.90;;;44.00;62.10;;;;;;5055390;28;20048;-74
2022/07/14 10:20:39;;;;;;;1999.90;999.90;;;43.80;60.90;;;;;;5055016;28;20025;-74
2022/07/14 10:23:05;;;;;;;1999.90;999.90;;;43.60;61.30;;;;;;5055384;28;20559;-74
2022/07/14 10:25:32;;;;;;;1999.90;999.90;;;43.60;61.30;;;;;;5055759;28;20104;-74
2022/07/14 10:27:59;;;;;;;1999.90;999.90;;;43.70;61.20;;;;;;5040616;28;20522;-74
2022/07/14 10:30:41;;;;;;;1999.90;999.90;;;43.40;61.20;;;;;;5054602;28;20045;-73
2022/07/14 10:33:36;;;;;;;1999.90;999.90;;;43.00;62.00;;;;;;5053517;28;20518;-74
2022/07/14 10:36:10;;;;;;;1999.90;999.90;;;42.70;61.50;;;;;;5041882;28;20045;-74
2022/07/14 10:39:14;;;;;;;1999.90;999.90;;;43.30;61.50;;;;;;5055085;28;20519;-73
2022/07/14 10:42:05;;;;;;;1999.90;999.90;;;43.40;61.10;;;;;;5033698;28;20026;-73
2022/07/14 10:44:34;;;;;;;1999.90;999.90;;;43.30;62.00;;;;;;5051407;28;20056;-73
2022/07/14 10:47:08;;;;;;;1999.90;999.90;;;43.80;61.40;;;;;;5055100;28;20017;-73
2022/07/14 10:50:00;;;;;;;1999.90;999.90;;;43.70;60.90;;;;;;5050917;28;20029;-73
2022/07/14 10:52:27;;;;;;;1999.90;999.90;;;43.80;59.60;;;;;;5043342;28;20029;-73
2022/07/14 10:55:12;;;;;;;1999.90;999.90;;;43.70;59.80;;;;;;5054939;28;20025;-74
2022/07/14 10:57:38;;;;;;;1999.90;999.90;;;43.80;60.00;;;;;;5055458;28;20103;-73
2022/07/14 11:00:04;;;;;;;1999.90;999.90;;;43.00;58.30;;;;;;5055042;28;20061;-73
2022/07/14 11:02:32;;;;;;;1999.90;999.90;;;42.30;59.50;;;;;;5053197;28;20565;-73
2022/07/14 11:05:16;;;;;;;1999.90;999.90;;;42.90;60.00;;;;;;5054843;28;20013;-73
2022/07/14 11:08:06;;;;;;;1999.90;999.90;;;42.70;59.10;;;;;;5055106;28;20022;-73
2022/07/14 11:10:32;;;;;;;1999.90;999.90;;;43.50;59.90;;;;;;5054599;28;20391;-73
2022/07/14 11:13:04;;;;;;;1999.90;999.90;;;43.70;58.10;;;;;;5054510;28;20025;-73
2022/07/14 11:15:38;;;;;;;1999.90;999.90;;;43.60;60.40;;;;;;5054726;28;20029;-73
2022/07/14 11:18:21;;;;;;;1999.90;999.90;;;43.80;58.10;;;;;;5054223;28;20159;-73
2022/07/14 11:21:08;;;;;;;1999.90;999.90;;;44.00;58.30;;;;;;5053854;28;20078;-73
2022/07/14 11:23:46;;;;;;;1999.90;999.90;;;43.80;57.90;;;;;;5054445;28;20028;-74
2022/07/14 11:26:41;;;;;;;1999.90;999.90;;;43.70;59.40;;;;;;5054284;28;20055;-74
2022/07/14 11:29:08;;;;;;;1999.90;999.90;;;43.30;58.60;;;;;;5054323;28;20025;-73
2022/07/14 11:31:48;;;;;;;1999.90;999.90;;;43.30;59.10;;;;;;5053946;28;20057;-73
2022/07/14 11:37:26;;;;;;;1999.90;999.90;;;43.00;58.10;;;;;;4992497;28;20442;-73
2022/07/14 11:39:51;;;;;;;1999.90;999.90;;;43.40;59.80;;;;;;4982738;28;20060;-74
2022/07/14 11:42:17;;;;;;;1999.90;999.90;;;43.30;59.30;;;;;;5016336;28;20116;-74
2022/07/14 11:44:48;;;;;;;1999.90;999.90;;;43.60;58.60;;;;;;5054259;28;20025;-73
2022/07/14 11:47:33;;;;;;;1999.90;999.90;;;43.40;59.10;;;;;;5054018;28;20030;-73
2022/07/14 11:50:07;;;;;;;1999.90;999.90;;;42.90;58.50;;;;;;5048574;28;20489;-74
2022/07/14 11:52:38;;;;;;;1999.90;999.90;;;42.20;58.50;;;;;;5065387;28;20430;-74
2022/07/14 11:55:07;;;;;;;1999.90;999.90;;;41.80;58.90;;;;;;5053682;28;20053;-73
2022/07/14 11:57:33;;;;;;;1999.90;999.90;;;41.20;58.80;;;;;;5054007;28;20021;-73
2022/07/14 12:00:04;;;;;;;1999.90;999.90;;;41.30;58.90;;;;;;5053826;28;20029;-73
2022/07/14 12:02:30;;;;;;;1999.90;999.90;;;41.00;57.80;;;;;;5051929;28;20036;-73
2022/07/14 12:05:00;;;;;;;1999.90;999.90;;;40.90;58.90;;;;;;5053893;28;20025;-73
2022/07/14 12:07:43;;;;;;;1999.90;999.90;;;41.00;59.10;;;;;;5053760;28;20044;-73
2022/07/14 12:10:09;;;;;;;1999.90;999.90;;;40.80;57.60;;;;;;5049974;28;20025;-74
2022/07/14 12:12:44;;;;;;;1999.90;999.90;;;41.10;58.20;;;;;;5046650;28;20029;-73
2022/07/14 12:15:11;;;;;;;1999.90;999.90;;;41.60;58.50;;;;;;5053993;28;20234;-74
2022/07/14 12:17:48;;;;;;;1999.90;999.90;;;41.40;57.40;;;;;;5035127;28;20021;-73